createdAt,value
2023-05-14T00:01:08.359Z,60.30
2023-05-14T00:03:37.070Z,60.10
2023-05-14T00:06:05.546Z,59.20
2023-05-14T00:08:33.650Z,60.50
2023-05-14T00:11:01.756Z,59.80
2023-05-14T00:13:29.782Z,59.70
2023-05-14T00:15:59.251Z,59.70
2023-05-14T00:18:27.398Z,59.60
2023-05-14T00:20:55.895Z,59.50
2023-05-14T00:23:23.945Z,58.50
2023-05-14T00:25:52.027Z,60.00
2023-05-14T00:28:20.069Z,60.60
2023-05-14T00:30:48.151Z,61.50
2023-05-14T00:33:17.595Z,61.20
2023-05-14T00:35:45.848Z,61.60
2023-05-14T00:38:17.606Z,61.50
2023-05-14T00:40:51.199Z,61.40
2023-05-14T00:43:19.617Z,61.40
2023-05-14T00:45:47.678Z,61.70
2023-05-14T00:48:17.087Z,60.10
2023-05-14T00:50:45.127Z,59.20
2023-05-14T00:53:13.236Z,59.30
2023-05-14T00:55:43.093Z,59.90
2023-05-14T00:58:12.816Z,60.80
2023-05-14T01:00:41.218Z,60.80
2023-05-14T01:03:09.693Z,60.30
2023-05-14T01:05:43.186Z,60.70
2023-05-14T01:08:14.760Z,60.80
2023-05-14T01:10:46.928Z,60.80
2023-05-14T01:13:18.547Z,60.20
2023-05-14T01:15:46.559Z,60.00
2023-05-14T01:18:15.837Z,60.30
2023-05-14T01:20:46.051Z,59.60
2023-05-14T01:23:15.494Z,59.50
2023-05-14T01:25:43.550Z,59.60
2023-05-14T01:28:14.458Z,59.20
2023-05-14T01:30:44.778Z,59.10
2023-05-14T01:33:13.499Z,60.00
2023-05-14T01:35:41.564Z,59.70
2023-05-14T01:38:11.829Z,59.50
2023-05-14T01:40:41.406Z,59.50
2023-05-14T01:43:09.704Z,59.10
2023-05-14T01:45:37.848Z,58.70
2023-05-14T01:48:06.304Z,58.60
2023-05-14T01:50:34.475Z,58.50
2023-05-14T01:53:02.538Z,58.50
2023-05-14T01:55:30.629Z,61.30
2023-05-14T01:58:00.062Z,60.40
2023-05-14T02:00:28.383Z,59.60
2023-05-14T02:02:56.487Z,59.20
2023-05-14T02:05:24.589Z,60.20
2023-05-14T02:07:52.680Z,60.70
2023-05-14T02:10:21.024Z,60.80
2023-05-14T02:12:49.248Z,61.10
2023-05-14T02:15:18.742Z,61.70
2023-05-14T02:17:46.863Z,61.90
2023-05-14T02:20:15.358Z,63.30
2023-05-14T02:22:45.754Z,64.00
2023-05-14T02:25:13.828Z,64.30
2023-05-14T02:27:41.912Z,65.30
2023-05-14T02:30:11.516Z,65.30
2023-05-14T02:32:41.461Z,64.80
2023-05-14T02:35:10.490Z,65.20
2023-05-14T02:37:38.603Z,63.40
2023-05-14T02:40:07.934Z,63.80
2023-05-14T02:42:36.033Z,65.00
2023-05-14T02:45:04.206Z,65.10
2023-05-14T02:47:32.337Z,64.20
2023-05-14T02:50:01.800Z,64.30
2023-05-14T02:52:29.864Z,64.80
2023-05-14T02:54:57.908Z,64.50
2023-05-14T02:57:25.925Z,65.00
2023-05-14T02:59:53.954Z,65.90
2023-05-14T03:02:22.351Z,66.60
2023-05-14T03:04:50.878Z,65.80
2023-05-14T03:07:20.269Z,65.80
2023-05-14T03:09:48.325Z,64.40
2023-05-14T03:12:16.374Z,64.60
2023-05-14T03:14:44.434Z,64.50
2023-05-14T03:17:12.520Z,63.70
2023-05-14T03:19:40.607Z,63.50
2023-05-14T03:22:08.676Z,63.50
2023-05-14T03:24:39.899Z,63.50
2023-05-14T03:27:07.925Z,63.90
2023-05-14T03:29:35.977Z,64.20
2023-05-14T03:32:04.176Z,63.90
2023-05-14T03:34:32.199Z,65.10
2023-05-14T03:37:00.251Z,65.10
2023-05-14T03:39:28.286Z,65.40
2023-05-14T03:41:59.001Z,65.00
2023-05-14T03:44:27.111Z,65.00
2023-05-14T03:46:55.244Z,65.80
2023-05-14T03:49:23.330Z,65.90
2023-05-14T03:51:51.429Z,65.40
2023-05-14T03:54:19.513Z,65.60
2023-05-14T03:56:47.578Z,66.00
2023-05-14T03:59:17.023Z,65.70
2023-05-14T04:01:45.090Z,66.50
2023-05-14T04:04:13.239Z,65.70
2023-05-14T04:06:41.365Z,67.10
2023-05-14T04:09:10.985Z,67.40
2023-05-14T04:11:39.169Z,67.00
2023-05-14T04:14:07.818Z,67.40
2023-05-14T04:16:37.401Z,67.80
2023-05-14T04:19:05.809Z,68.60
2023-05-14T04:21:34.006Z,68.30
2023-05-14T04:24:02.204Z,67.20
2023-05-14T04:26:30.294Z,67.30
2023-05-14T04:28:58.396Z,67.30
2023-05-14T04:31:26.464Z,65.40
2023-05-14T04:33:56.011Z,65.70
2023-05-14T04:36:24.159Z,67.00
2023-05-14T04:38:52.248Z,65.70
2023-05-14T04:41:21.137Z,66.20
2023-05-14T04:43:50.896Z,67.40
2023-05-14T04:46:19.225Z,67.80
2023-05-14T04:48:47.774Z,67.80
2023-05-14T04:51:17.203Z,65.60
2023-05-14T04:53:45.310Z,66.60
2023-05-14T04:56:13.350Z,66.30
2023-05-14T04:58:41.440Z,67.40
2023-05-14T05:01:10.152Z,66.90
2023-05-14T05:03:38.290Z,67.40
2023-05-14T05:06:06.637Z,65.90
2023-05-14T05:08:36.302Z,64.80
2023-05-14T05:11:04.433Z,64.90
2023-05-14T05:13:32.905Z,64.60
2023-05-14T05:16:01.051Z,64.80
2023-05-14T05:18:29.246Z,63.40
2023-05-14T05:20:57.311Z,63.60
2023-05-14T05:23:25.349Z,63.20
2023-05-14T05:25:54.755Z,62.50
2023-05-14T05:28:22.867Z,62.50
2023-05-14T05:30:51.010Z,62.40
2023-05-14T05:33:19.434Z,63.90
2023-05-14T05:35:48.298Z,62.00
2023-05-14T05:38:18.269Z,61.80
2023-05-14T05:40:46.359Z,61.30
2023-05-14T05:43:16.767Z,61.90
2023-05-14T05:45:46.057Z,62.00
2023-05-14T05:48:14.194Z,61.80
2023-05-14T05:50:44.334Z,61.90
2023-05-14T05:53:12.542Z,61.10
2023-05-14T05:55:41.396Z,60.60
2023-05-14T05:58:09.419Z,61.00
2023-05-14T06:00:38.848Z,61.30
2023-05-14T06:03:07.351Z,60.60
2023-05-14T06:05:35.767Z,60.90
2023-05-14T06:08:04.380Z,60.10
2023-05-14T06:10:32.631Z,59.70
2023-05-14T06:13:00.720Z,59.50
2023-05-14T06:15:28.860Z,60.30
2023-05-14T06:17:58.355Z,59.20
2023-05-14T06:20:26.681Z,58.10
2023-05-14T06:22:54.925Z,59.00
2023-05-14T06:25:23.000Z,59.50
2023-05-14T06:27:51.103Z,59.00
2023-05-14T06:30:19.213Z,58.20
2023-05-14T06:32:47.386Z,57.70
2023-05-14T06:35:17.228Z,56.70
2023-05-14T06:37:45.261Z,58.20
2023-05-14T06:40:15.675Z,58.00
2023-05-14T06:42:43.785Z,57.30
2023-05-14T06:45:12.628Z,55.70
2023-05-14T06:47:41.380Z,55.00
2023-05-14T06:50:10.900Z,55.10
2023-05-14T06:52:40.601Z,54.90
2023-05-14T06:55:09.353Z,54.50
2023-05-14T06:57:39.843Z,54.10
2023-05-14T07:00:09.895Z,54.30
2023-05-14T07:02:38.168Z,54.30
2023-05-14T07:05:06.807Z,54.20
2023-05-14T07:07:34.867Z,53.50
2023-05-14T07:10:04.695Z,54.30
2023-05-14T07:12:32.820Z,53.50
2023-05-14T07:15:00.973Z,53.00
2023-05-14T07:17:29.076Z,53.70
2023-05-14T07:19:57.205Z,53.20
2023-05-14T07:22:25.316Z,53.20
2023-05-14T07:24:53.354Z,52.00
2023-05-14T07:27:22.815Z,52.30
2023-05-14T07:29:51.111Z,51.80
2023-05-14T07:32:19.223Z,52.60
2023-05-14T07:34:47.434Z,51.80
2023-05-14T07:37:15.488Z,51.10
2023-05-14T07:39:43.503Z,50.20
2023-05-14T07:42:13.747Z,51.60
2023-05-14T07:44:48.950Z,51.90
2023-05-14T07:47:17.131Z,51.10
2023-05-14T07:49:45.215Z,52.70
2023-05-14T07:52:13.324Z,50.40
2023-05-14T07:54:41.505Z,50.00
2023-05-14T07:57:09.612Z,50.00
2023-05-14T07:59:37.738Z,47.90
2023-05-14T08:02:07.504Z,48.70
2023-05-14T08:04:36.137Z,48.20
2023-05-14T08:07:04.673Z,48.40
2023-05-14T08:09:32.782Z,48.20
2023-05-14T08:12:01.073Z,47.70
2023-05-14T08:14:29.158Z,47.30
2023-05-14T08:16:57.334Z,46.50
2023-05-14T08:19:27.973Z,46.50
2023-05-14T08:21:56.185Z,48.30
2023-05-14T08:24:24.410Z,47.70
2023-05-14T08:26:52.526Z,48.10
2023-05-14T08:29:20.781Z,47.00
2023-05-14T08:31:49.388Z,47.30
2023-05-14T08:34:18.400Z,47.30
2023-05-14T08:36:47.852Z,48.90
2023-05-14T08:39:17.070Z,46.00
2023-05-14T08:41:45.172Z,45.50
2023-05-14T08:44:15.335Z,44.20
2023-05-14T08:46:43.586Z,45.40
2023-05-14T08:49:17.848Z,44.60
2023-05-14T08:51:48.936Z,43.70
2023-05-14T08:54:17.988Z,45.90
2023-05-14T08:56:47.137Z,42.60
2023-05-14T08:59:15.269Z,44.80
2023-05-14T09:01:45.870Z,45.40
2023-05-14T09:04:14.262Z,44.90
2023-05-14T09:06:42.614Z,45.00
2023-05-14T09:09:13.279Z,44.60
2023-05-14T09:11:44.195Z,42.70
2023-05-14T09:14:13.425Z,44.20
2023-05-14T09:16:42.810Z,43.20
2023-05-14T09:19:11.258Z,44.90
2023-05-14T09:21:39.534Z,43.50
2023-05-14T09:24:26.252Z,44.60
2023-05-14T09:26:59.429Z,46.80
2023-05-14T09:29:27.847Z,46.30
2023-05-14T09:31:56.075Z,45.40
2023-05-14T09:34:25.632Z,45.00
2023-05-14T09:36:57.257Z,46.20
2023-05-14T09:39:25.561Z,44.70
2023-05-14T09:41:56.419Z,43.30
2023-05-14T09:44:27.790Z,45.20
2023-05-14T09:46:57.853Z,45.30
2023-05-14T09:49:26.215Z,45.40
2023-05-14T09:51:54.288Z,43.00
2023-05-14T09:54:22.728Z,43.10
2023-05-14T09:56:51.233Z,44.00
2023-05-14T09:59:20.997Z,45.20
2023-05-14T10:01:49.362Z,45.80
2023-05-14T10:04:17.873Z,46.40
2023-05-14T10:06:47.653Z,46.60
2023-05-14T10:09:16.239Z,43.80
2023-05-14T10:11:47.345Z,46.30
2023-05-14T10:14:18.662Z,46.50
2023-05-14T10:16:51.212Z,45.30
2023-05-14T10:19:19.993Z,45.40
2023-05-14T10:21:50.157Z,46.10
2023-05-14T10:24:18.388Z,44.80
2023-05-14T10:26:46.547Z,44.00
2023-05-14T10:29:14.814Z,47.20
2023-05-14T10:31:54.128Z,45.30
2023-05-14T10:34:42.586Z,48.00
2023-05-14T10:37:11.882Z,50.50
2023-05-14T10:39:44.259Z,47.20
2023-05-14T10:42:13.093Z,49.10
2023-05-14T10:44:47.630Z,47.20
2023-05-14T10:47:21.490Z,46.80
2023-05-14T10:49:53.351Z,47.60
2023-05-14T10:52:21.596Z,48.60
2023-05-14T10:54:53.248Z,48.70
2023-05-14T10:57:22.162Z,48.40
2023-05-14T10:59:53.263Z,47.90
2023-05-14T11:02:24.588Z,47.00
2023-05-14T11:05:00.145Z,46.40
2023-05-14T11:07:32.848Z,47.20
2023-05-14T11:10:02.661Z,47.30
2023-05-14T11:12:30.910Z,46.50
2023-05-14T11:15:00.296Z,45.70
2023-05-14T11:17:30.852Z,47.30
2023-05-14T11:19:59.210Z,46.70
2023-05-14T11:22:27.777Z,49.10
2023-05-14T11:24:55.869Z,50.00
2023-05-14T11:27:24.242Z,48.90
2023-05-14T11:29:52.405Z,49.30
2023-05-14T11:32:22.328Z,48.60
2023-05-14T11:34:52.100Z,48.00
2023-05-14T11:37:20.409Z,49.20
2023-05-14T11:39:49.756Z,50.90
2023-05-14T11:42:19.495Z,49.40
2023-05-14T11:44:49.088Z,47.90
2023-05-14T11:47:18.376Z,49.60
2023-05-14T11:49:47.168Z,49.10
2023-05-14T11:52:19.539Z,46.70
2023-05-14T11:54:49.699Z,48.30
2023-05-14T11:57:18.524Z,48.40
2023-05-14T11:59:46.747Z,48.30
2023-05-14T12:02:16.135Z,51.30
2023-05-14T12:04:44.549Z,51.30
2023-05-14T12:07:13.597Z,50.20
2023-05-14T12:09:49.024Z,51.50
2023-05-14T12:12:18.787Z,50.30
2023-05-14T12:14:46.908Z,48.40
2023-05-14T12:17:16.586Z,50.20
2023-05-14T12:19:45.352Z,47.90
2023-05-14T12:22:15.270Z,47.10
2023-05-14T12:24:44.972Z,47.70
2023-05-14T12:27:13.441Z,49.40
2023-05-14T12:29:41.669Z,47.30
2023-05-14T12:32:11.252Z,48.40
2023-05-14T12:34:42.466Z,46.20
2023-05-14T12:37:10.760Z,45.80
2023-05-14T12:39:38.889Z,46.20
2023-05-14T12:42:08.613Z,47.80
2023-05-14T12:44:36.981Z,47.40
2023-05-14T12:47:05.445Z,50.20
2023-05-14T12:49:33.645Z,46.20
2023-05-14T12:52:19.452Z,45.70
2023-05-14T12:54:49.833Z,47.20
2023-05-14T12:57:19.318Z,48.20
2023-05-14T12:59:47.502Z,48.20
2023-05-14T13:02:17.420Z,49.50
2023-05-14T13:04:46.051Z,49.40
2023-05-14T13:07:14.298Z,48.10
2023-05-14T13:09:42.458Z,48.50
2023-05-14T13:12:10.931Z,48.40
2023-05-14T13:14:40.306Z,48.50
2023-05-14T13:17:08.634Z,48.30
2023-05-14T13:19:36.863Z,46.30
2023-05-14T13:22:05.234Z,45.20
2023-05-14T13:24:33.319Z,46.90
2023-05-14T13:27:01.492Z,47.50
2023-05-14T13:29:31.837Z,48.40
2023-05-14T13:32:01.323Z,48.90
2023-05-14T13:34:29.406Z,44.50
2023-05-14T13:36:57.786Z,44.30
2023-05-14T13:39:27.336Z,44.90
2023-05-14T13:41:56.914Z,44.00
2023-05-14T13:44:25.303Z,44.20
2023-05-14T13:46:53.810Z,43.70
2023-05-14T13:49:23.591Z,44.40
2023-05-14T13:51:51.753Z,43.90
2023-05-14T13:54:19.867Z,45.20
2023-05-14T13:56:48.132Z,44.90
2023-05-14T13:59:16.286Z,44.80
2023-05-14T14:01:44.380Z,45.00
2023-05-14T14:04:12.714Z,44.30
2023-05-14T14:06:42.281Z,45.10
2023-05-14T14:09:10.644Z,44.30
2023-05-14T14:11:38.699Z,44.80
2023-05-14T14:14:07.018Z,44.30
2023-05-14T14:16:35.390Z,43.50
2023-05-14T14:19:03.645Z,42.90
2023-05-14T14:21:31.870Z,41.70
2023-05-14T14:24:01.550Z,43.60
2023-05-14T14:26:29.700Z,42.20
2023-05-14T14:28:58.623Z,44.70
2023-05-14T14:31:26.706Z,43.10
2023-05-14T14:33:54.772Z,41.50
2023-05-14T14:36:22.926Z,41.20
2023-05-14T14:38:51.270Z,42.00
2023-05-14T14:41:20.775Z,41.20
2023-05-14T14:43:49.737Z,43.30
2023-05-14T14:46:18.238Z,43.60
2023-05-14T14:48:46.553Z,42.50
2023-05-14T14:51:15.059Z,43.00
2023-05-14T14:53:43.207Z,43.60
2023-05-14T14:56:11.300Z,44.50
2023-05-14T14:58:40.880Z,44.70
2023-05-14T15:01:09.004Z,45.90
2023-05-14T15:03:37.730Z,46.20
2023-05-14T15:06:06.116Z,43.60
2023-05-14T15:08:35.559Z,41.70
2023-05-14T15:11:03.702Z,39.40
2023-05-14T15:13:31.784Z,41.90
2023-05-14T15:16:01.147Z,42.50
2023-05-14T15:18:29.389Z,40.90
2023-05-14T15:20:57.931Z,41.30
2023-05-14T15:23:26.091Z,44.60
2023-05-14T15:25:54.280Z,42.20
2023-05-14T15:28:22.350Z,41.00
2023-05-14T15:30:50.340Z,42.00
2023-05-14T15:33:19.946Z,42.50
2023-05-14T15:35:48.080Z,40.00
2023-05-14T15:38:16.218Z,39.80
2023-05-14T15:40:44.319Z,40.20
2023-05-14T15:43:12.594Z,41.00
2023-05-14T15:45:40.868Z,40.60
2023-05-14T15:48:08.929Z,42.00
2023-05-14T15:50:38.506Z,41.60
2023-05-14T15:53:06.556Z,38.90
2023-05-14T15:55:34.619Z,40.20
2023-05-14T15:58:03.535Z,39.90
2023-05-14T16:00:31.795Z,43.70
2023-05-14T16:02:59.940Z,44.00
2023-05-14T16:05:28.273Z,42.80
2023-05-14T16:07:57.655Z,44.00
2023-05-14T16:10:26.044Z,44.20
2023-05-14T16:12:54.564Z,40.90
2023-05-14T16:15:22.607Z,43.50
2023-05-14T16:17:50.834Z,42.90
2023-05-14T16:20:19.087Z,44.50
2023-05-14T16:22:47.141Z,45.20
2023-05-14T16:25:18.673Z,44.90
2023-05-14T16:27:46.807Z,45.00
2023-05-14T16:30:15.089Z,45.30
2023-05-14T16:32:43.433Z,45.60
2023-05-14T16:35:11.884Z,46.00
2023-05-14T16:37:40.921Z,44.30
2023-05-14T16:40:11.683Z,43.40
2023-05-14T16:42:41.664Z,43.60
2023-05-14T16:45:11.089Z,43.10
2023-05-14T16:47:39.253Z,42.20
2023-05-14T16:50:08.836Z,43.70
2023-05-14T16:52:37.094Z,41.70
2023-05-14T16:55:05.841Z,41.90
2023-05-14T16:57:34.300Z,42.70
2023-05-14T17:00:06.232Z,45.50
2023-05-14T17:02:34.449Z,45.80
2023-05-14T17:05:02.566Z,44.70
2023-05-14T17:07:31.221Z,44.90
2023-05-14T17:10:00.087Z,45.70
2023-05-14T17:12:28.310Z,43.80
2023-05-14T17:14:56.462Z,45.20
2023-05-14T17:17:26.009Z,44.90
2023-05-14T17:19:54.118Z,43.60
2023-05-14T17:22:22.238Z,43.50
2023-05-14T17:24:50.531Z,43.30
2023-05-14T17:27:18.988Z,43.40
2023-05-14T17:29:47.044Z,45.30
2023-05-14T17:32:15.309Z,46.00
2023-05-14T17:34:44.790Z,45.80
2023-05-14T17:37:13.046Z,46.40
2023-05-14T17:39:41.146Z,47.00
2023-05-14T17:42:09.963Z,46.80
2023-05-14T17:44:38.069Z,46.60
2023-05-14T17:47:07.347Z,45.90
2023-05-14T17:49:35.532Z,45.30
2023-05-14T17:52:05.113Z,45.00
2023-05-14T17:54:33.325Z,46.60
2023-05-14T17:57:01.707Z,46.10
2023-05-14T17:59:29.830Z,47.00
2023-05-14T18:01:57.945Z,47.70
2023-05-14T18:04:26.100Z,47.70
2023-05-14T18:06:54.226Z,50.70
2023-05-14T18:09:23.820Z,47.70
2023-05-14T18:11:51.839Z,49.60
2023-05-14T18:14:19.876Z,50.50
2023-05-14T18:16:48.004Z,50.60
2023-05-14T18:19:16.253Z,49.20
2023-05-14T18:21:46.616Z,49.30
2023-05-14T18:24:14.723Z,50.10
2023-05-14T18:26:44.083Z,51.00
2023-05-14T18:29:12.130Z,50.40
2023-05-14T18:31:40.171Z,51.80
2023-05-14T18:34:08.332Z,52.20
2023-05-14T18:36:36.377Z,51.90
2023-05-14T18:39:04.599Z,53.70
2023-05-14T18:41:32.634Z,53.50
2023-05-14T18:44:02.381Z,54.00
2023-05-14T18:46:30.539Z,54.30
2023-05-14T18:48:58.597Z,55.10
2023-05-14T18:51:26.668Z,55.10
2023-05-14T18:53:54.790Z,55.10
2023-05-14T18:56:22.851Z,55.50
2023-05-14T18:58:50.861Z,57.30
2023-05-14T19:01:21.332Z,57.50
2023-05-14T19:03:49.572Z,59.30
2023-05-14T19:06:17.784Z,59.50
2023-05-14T19:08:45.935Z,58.30
2023-05-14T19:11:13.999Z,58.20
2023-05-14T19:13:44.481Z,58.90
2023-05-14T19:16:12.640Z,60.90
2023-05-14T19:18:42.295Z,61.60
2023-05-14T19:21:12.478Z,61.20
2023-05-14T19:23:40.846Z,61.30
2023-05-14T19:26:08.868Z,60.70
2023-05-14T19:28:39.127Z,61.40
2023-05-14T19:31:07.256Z,60.40
2023-05-14T19:33:35.451Z,60.30
2023-05-14T19:36:05.335Z,56.30
2023-05-14T19:38:33.809Z,57.80
2023-05-14T19:41:01.875Z,59.80
2023-05-14T19:43:29.940Z,59.80
2023-05-14T19:45:59.434Z,61.50
2023-05-14T19:48:28.640Z,59.30
2023-05-14T19:50:56.705Z,61.50
2023-05-14T19:53:30.178Z,61.40
2023-05-14T19:55:58.249Z,63.00
2023-05-14T19:58:27.484Z,63.40
2023-05-14T20:00:57.624Z,63.50
2023-05-14T20:03:26.704Z,62.80
2023-05-14T20:05:54.938Z,62.90
2023-05-14T20:08:22.964Z,63.70
2023-05-14T20:10:52.393Z,63.20
2023-05-14T20:13:21.820Z,62.10
2023-05-14T20:15:51.296Z,61.70
2023-05-14T20:18:19.329Z,61.60
2023-05-14T20:20:47.695Z,62.10
2023-05-14T20:23:15.699Z,62.40
2023-05-14T20:25:44.563Z,61.90
2023-05-14T20:28:13.973Z,64.20
2023-05-14T20:30:42.571Z,64.50
2023-05-14T20:33:10.764Z,63.80
2023-05-14T20:35:40.823Z,63.50
2023-05-14T20:38:08.980Z,63.60
2023-05-14T20:40:37.150Z,61.50
2023-05-14T20:43:05.222Z,60.30
2023-05-14T20:45:34.611Z,59.40
2023-05-14T20:48:02.675Z,58.10
2023-05-14T20:50:30.783Z,58.60
2023-05-14T20:52:58.915Z,57.30
2023-05-14T20:55:27.378Z,55.60
2023-05-14T20:57:55.618Z,57.20
2023-05-14T21:00:23.680Z,56.20
2023-05-14T21:02:53.202Z,55.20
2023-05-14T21:05:22.122Z,56.50
2023-05-14T21:07:50.272Z,58.60
2023-05-14T21:10:18.290Z,60.00
2023-05-14T21:12:46.330Z,58.70
2023-05-14T21:15:14.365Z,57.10
2023-05-14T21:17:42.458Z,56.50
2023-05-14T21:20:13.688Z,56.20
2023-05-14T21:22:41.818Z,58.20
2023-05-14T21:25:11.015Z,57.40
2023-05-14T21:27:39.113Z,57.00
2023-05-14T21:30:08.436Z,56.10
2023-05-14T21:32:36.539Z,55.50
2023-05-14T21:35:05.505Z,55.60
2023-05-14T21:37:34.894Z,56.40
2023-05-14T21:40:02.966Z,57.20
2023-05-14T21:42:31.062Z,60.00
2023-05-14T21:44:59.126Z,60.60
2023-05-14T21:47:27.716Z,61.30
2023-05-14T21:49:55.791Z,61.40
2023-05-14T21:52:23.845Z,61.00
2023-05-14T21:54:53.309Z,60.00
2023-05-14T21:57:21.324Z,60.60
2023-05-14T21:59:49.340Z,62.30
2023-05-14T22:02:17.478Z,60.80
2023-05-14T22:04:45.528Z,60.50
2023-05-14T22:07:13.614Z,61.10
2023-05-14T22:09:41.635Z,63.20
2023-05-14T22:12:11.232Z,62.60
2023-05-14T22:14:39.248Z,63.50
2023-05-14T22:17:07.486Z,63.10
2023-05-14T22:19:35.495Z,64.20
2023-05-14T22:22:03.576Z,64.50
2023-05-14T22:24:31.623Z,62.60
2023-05-14T22:26:59.652Z,60.20
2023-05-14T22:29:29.038Z,59.50
2023-05-14T22:31:57.102Z,59.50
2023-05-14T22:34:25.249Z,60.40
2023-05-14T22:36:53.287Z,61.80
2023-05-14T22:39:21.558Z,64.50
2023-05-14T22:41:54.842Z,63.90
2023-05-14T22:44:23.126Z,62.10
2023-05-14T22:46:52.748Z,61.10
2023-05-14T22:49:20.834Z,61.10
2023-05-14T22:51:48.861Z,65.20
2023-05-14T22:54:17.599Z,63.30
2023-05-14T22:56:46.379Z,61.40
2023-05-14T22:59:14.462Z,60.60
2023-05-14T23:01:42.618Z,64.10
2023-05-14T23:04:12.165Z,63.80
2023-05-14T23:06:40.385Z,64.70
2023-05-14T23:09:08.621Z,65.60
2023-05-14T23:11:36.692Z,67.00
2023-05-14T23:14:04.720Z,67.10
2023-05-14T23:16:32.967Z,64.40
2023-05-14T23:19:01.176Z,63.10
2023-05-14T23:21:30.720Z,64.80
2023-05-14T23:23:58.809Z,65.90
2023-05-14T23:26:26.825Z,65.70
2023-05-14T23:28:54.900Z,66.30
2023-05-14T23:31:22.980Z,65.20
2023-05-14T23:33:51.026Z,62.90
2023-05-14T23:36:19.070Z,62.80
2023-05-14T23:38:48.469Z,62.80
2023-05-14T23:41:16.507Z,63.20
2023-05-14T23:43:44.551Z,61.70
2023-05-14T23:46:13.111Z,61.00
2023-05-14T23:48:41.182Z,61.90
2023-05-14T23:51:09.183Z,61.80
2023-05-14T23:53:37.456Z,62.40
2023-05-14T23:56:07.231Z,63.90
2023-05-14T23:58:35.282Z,63.50
